WetterOnline ( https://www.wetteronline.de )

Wetter aktuell Teichwitz

Aktuelles Wetter: Plauen (389m)

6-stündlich | Neueste Meldungen
Ortszeit Temperatur Wetter
Fr, 22.09. 8:00 13.8° C bewölkt
Fr, 22.09. 2:00 17.3° C wolkig
Do, 21.09. 20:00 21.1° C wolkig
Do, 21.09. 14:00 24.2° C bedeckt
Do, 21.09. 8:00 11.2° C leicht bewölkt
Do, 21.09. 2:00 16.3° C wolkenlos
Mi, 20.09. 20:00 19.5° C wolkenlos
Mi, 20.09. 14:00 22.8° C bewölkt
Ortszeit Temperatur Wetter
Fr, 22.09. 10:30 14.0° C bewölkt
Fr, 22.09. 10:20 14.0° C bewölkt
Fr, 22.09. 10:10 14.0° C leichter Regen
Fr, 22.09. 10:00 13.9° C bewölkt
Fr, 22.09. 9:50 13.9° C bewölkt
Fr, 22.09. 9:40 14.1° C Sprühregen
Fr, 22.09. 9:30 13.9° C leichter Regen
Fr, 22.09. 9:00 13.9° C bewölkt
Fr, 22.09. 8:30 13.8° C wolkig
Fr, 22.09. 8:00 13.8° C bewölkt
Fr, 22.09. 7:30 13.9° C bedeckt
Ortszeit Relative Feuchte Sichtweite
Fr, 22.09. 8:00 92% >70 km
Fr, 22.09. 2:00 74% >70 km
Do, 21.09. 20:00 68% 45 km
Do, 21.09. 14:00 51% >70 km
Do, 21.09. 8:00 92% 40 km
Do, 21.09. 2:00 73% 65 km
Mi, 20.09. 20:00 58% >70 km
Mi, 20.09. 14:00 49% >70 km
Ortszeit Relative Feuchte Sichtweite
Fr, 22.09. 10:30 85% >70 km
Fr, 22.09. 10:20 85% -
Fr, 22.09. 10:10 85% -
Fr, 22.09. 10:00 88% 55 km
Fr, 22.09. 9:50 88% -
Fr, 22.09. 9:40 90% -
Fr, 22.09. 9:30 89% 55 km
Fr, 22.09. 9:00 89% 65 km
Fr, 22.09. 8:30 91% >70 km
Fr, 22.09. 8:00 92% >70 km
Fr, 22.09. 7:30 94% >70 km
Ortszeit Niederschlagsmenge Niederschlagsart
Fr, 22.09. 8:00 3 l/m2 in 12 Std. Regen
Fr, 22.09. 2:00 0.0 l/m2 in 6 Std. -
Do, 21.09. 20:00 0.0 l/m2 in 12 Std. -
Do, 21.09. 14:00 0.0 l/m2 in 6 Std. -
Do, 21.09. 8:00 0.0 l/m2 in 12 Std. -
Do, 21.09. 2:00 0.0 l/m2 in 6 Std. -
Mi, 20.09. 20:00 0.0 l/m2 in 12 Std. -
Mi, 20.09. 14:00 0.0 l/m2 in 6 Std. -
Ortszeit Niederschlagsmenge Niederschlagsart
Fr, 22.09. 10:30 <0.05 l/m2 in 30 Min Schneeregen
Fr, 22.09. 10:20 keine Meldung -
Fr, 22.09. 10:10 keine Meldung -
Fr, 22.09. 10:00 <0.05 l/m2 in 1 Std. Regen
Fr, 22.09. 9:50 keine Meldung -
Fr, 22.09. 9:40 keine Meldung -
Fr, 22.09. 9:30 <0.05 l/m2 in 30 Min -
Fr, 22.09. 9:00 0.0 l/m2 in 1 Std. -
Fr, 22.09. 8:30 0.0 l/m2 in 30 Min -
Fr, 22.09. 8:00 0.1 l/m2 in 1 Std. Regen
Fr, 22.09. 7:30 0.1 l/m2 in 30 Min Schneeregen
Ortszeit Stärke Spitze Richtung
km/h Bft. km/h Grad Sektor
Fr, 22.09. 8:00 7 2 25 180° S
Fr, 22.09. 2:00 11 2 36 220° SW
Do, 21.09. 20:00 9 2 28 140° SO
Do, 21.09. 14:00 7 2 29 160° S
Do, 21.09. 8:00 7 2 22 220° SW
Do, 21.09. 2:00 7 2 20 160° S
Mi, 20.09. 20:00 9 2 37 160° S
Mi, 20.09. 14:00 14 3 36 210° SW
Ortszeit Stärke Spitze Richtung
km/h Bft. km/h Grad Sektor
Fr, 22.09. 10:30 11 2 18 210° SW
Fr, 22.09. 10:20 11 2 - 210° SW
Fr, 22.09. 10:10 11 2 - 210° SW
Fr, 22.09. 10:00 6 1 15 180° S
Fr, 22.09. 9:50 6 1 - 180° S
Fr, 22.09. 9:40 6 1 - 190° S
Fr, 22.09. 9:30 7 2 14 180° S
Fr, 22.09. 9:00 7 2 22 180° S
Fr, 22.09. 8:30 9 2 17 170° S
Fr, 22.09. 8:00 7 2 14 180° S
Fr, 22.09. 7:30 7 2 11 160° S
Ortszeit Untergrenze Bedeckung Gattung
total tief tief mittel hoch
Fr, 22.09. 8:00 720 m 8/8 6/8 - - -
Fr, 22.09. 2:00 1470 m 8/8 2/8 - - -
Do, 21.09. 20:00 4500 m 8/8 3/8 - - -
Do, 21.09. 14:00 5400 m 8/8 8/8 - - -
Do, 21.09. 8:00 6600 m 3/8 3/8 - - -
Do, 21.09. 2:00 - 0/8 0/8 - - -
Mi, 20.09. 20:00 - 0/8 0/8 - - -
Mi, 20.09. 14:00 5100 m 8/8 5/8 - - -
Ortszeit Bedeckungsgrad in Achtel und Wolkenuntergrenze
Fr, 22.09. 10:30 1(540m) 7(2100m) 7(2400m)
Fr, 22.09. 10:20 1(540m) 7(2100m) 7(2400m)
Fr, 22.09. 10:10 7
Fr, 22.09. 10:00 2(720m) 7(2100m) 7(2700m)
Fr, 22.09. 9:50 2(720m) 7(2100m) 7(2700m)
Fr, 22.09. 9:40 7
Fr, 22.09. 9:30 1(1500m) 7(2100m) 8(2700m)
Fr, 22.09. 9:00 3(900m) 6(2700m) 8(3300m)
Fr, 22.09. 8:30 3(720m) 8(3300m) 8(4500m)
Fr, 22.09. 8:00 4(720m) 6(2400m) 8(3000m)
Fr, 22.09. 7:30 1(540m) 6(1200m) 8(2700m)
Ortszeit Luftdruck NN (hPa) Tendenz (hPa in 3 Std.)
Fr, 22.09. 8:00 1004 + 1,2
Fr, 22.09. 2:00 1001 + 2,1
Do, 21.09. 20:00 999 - 0,8
Do, 21.09. 14:00 1002 - 1,9
Do, 21.09. 8:00 1007 - 1,3
Do, 21.09. 2:00 1009 - 0,9
Mi, 20.09. 20:00 1010 - 0,6
Mi, 20.09. 14:00 1012 - 1,6
Ortszeit Luftdruck NN (hPa) Tendenz (hPa in 3 Std.)
Fr, 22.09. 10:30 1006 + 2,7
Fr, 22.09. 10:20 1006 keine Meldung
Fr, 22.09. 10:10 1006 keine Meldung
Fr, 22.09. 10:00 1005 + 2,1
Fr, 22.09. 9:50 1005 keine Meldung
Fr, 22.09. 9:40 1005 keine Meldung
Fr, 22.09. 9:30 1005 + 1,9
Fr, 22.09. 9:00 1005 + 1,4
Fr, 22.09. 8:30 1004 + 1,4
Fr, 22.09. 8:00 1004 + 1,2
Fr, 22.09. 7:30 1003 + 0,4
Ortszeit Schneehöhe (cm)
Fr, 22.09. 8:00 0
Fr, 22.09. 2:00 0
Do, 21.09. 20:00 0
Do, 21.09. 14:00 0
Do, 21.09. 8:00 0
Do, 21.09. 2:00 0
Mi, 20.09. 20:00 0
Mi, 20.09. 14:00 0
Ortszeit Schneehöhe (cm)
Fr, 22.09. 10:30 0
Fr, 22.09. 10:20 0
Fr, 22.09. 10:10 -
Fr, 22.09. 10:00 0
Fr, 22.09. 9:50 0
Fr, 22.09. 9:40 -
Fr, 22.09. 9:30 0
Fr, 22.09. 9:00 0
Fr, 22.09. 8:30 0
Fr, 22.09. 8:00 0
Fr, 22.09. 7:30 0
Link zu dieser Seite / Seite empfehlen

Das Wetter in ...